KSRB  Upper Cumberland Regional Airport

Add Bookmark

Sparta, Tennessee, United States

Status Useage
Operational Public
Latitude Longitude
36° 3' 24" N 85° 31' 48" W
36.056739 -85.530108
Local (DST -5) UTC (GMT -6)
Oct 30, 2014 07:56 Oct 30, 2014 12:56
Sunrise-Sunset Local UTC
Begin Civil Twilight 06:35 11:35
Sunrise 07:02 12:02
Sunset 05:49 22:49
End Civil Twilight 06:15 23:15

Current Weather

METAR Observed MVFR
KSRB 301235Z AUTO 00000KT 5SM CLR 02/01 A3014 Thu, Oct 30, 2014 @ 12:35 UTC
(21 Minutes ago)
Marginal Visual Flight Rules
Wind Visibility Clouds Conditions
Calm 5 statute miles
  • Clear skies
  • No significant weather
Temperatures Readings Precipitation
Current Temp 2°C (36°F)
Dewpoint 1°C (34°F)
Humidity 93%
Altimeter 30.14"Hg
Sea Level Pressure 1021mb
None Recorded

Additional weather within a 50nm radius of KSRB

Map ICAO Location
KCSV 22.5nm E (106°)
KRNC 26.3nm S (215°)
KMQY 48.1nm W (267°)

24 Hour Weather History

Loading
-

24 Hour Weather Graphs

Loading
-

CheckWX.com is intended as a tool to help pilots better visualize weather data. It is not intended as a substitute for an official weather briefing obtained from a Flight Service Station. CheckWX.com does not meet the FAA requirements for an official pre-flight weather briefing. Therefore, it's important that pilots still call and obtain an official FSS pre-flight weather briefing.